sensor_id;sensor_type;location;lat;lon;timestamp;P1;durP1;ratioP1;P2;durP2;ratioP2
23129;SDS011;11734;51.046;13.778;2022-09-16T00:00:55;2.57;;;1.33;;
23129;SDS011;11734;51.046;13.778;2022-09-16T00:03:22;1.10;;;1.00;;
23129;SDS011;11734;51.046;13.778;2022-09-16T00:05:50;1.60;;;1.50;;
23129;SDS011;11734;51.046;13.778;2022-09-16T00:08:18;1.87;;;1.27;;
23129;SDS011;11734;51.046;13.778;2022-09-16T00:10:48;1.00;;;1.00;;
23129;SDS011;11734;51.046;13.778;2022-09-16T00:13:15;1.83;;;1.10;;
23129;SDS011;11734;51.046;13.778;2022-09-16T00:15:44;1.83;;;0.93;;
23129;SDS011;11734;51.046;13.778;2022-09-16T00:18:16;4.20;;;1.10;;
23129;SDS011;11734;51.046;13.778;2022-09-16T00:20:47;1.17;;;0.93;;
23129;SDS011;11734;51.046;13.778;2022-09-16T00:23:17;2.23;;;1.50;;
23129;SDS011;11734;51.046;13.778;2022-09-16T00:25:51;1.60;;;1.07;;
23129;SDS011;11734;51.046;13.778;2022-09-16T00:28:21;1.30;;;1.20;;
23129;SDS011;11734;51.046;13.778;2022-09-16T00:30:48;1.27;;;1.17;;
23129;SDS011;11734;51.046;13.778;2022-09-16T00:33:16;1.20;;;1.10;;
23129;SDS011;11734;51.046;13.778;2022-09-16T00:35:45;3.67;;;1.40;;
23129;SDS011;11734;51.046;13.778;2022-09-16T00:38:13;1.30;;;1.20;;
23129;SDS011;11734;51.046;13.778;2022-09-16T00:40:44;2.17;;;1.30;;
23129;SDS011;11734;51.046;13.778;2022-09-16T00:43:14;1.13;;;1.10;;
23129;SDS011;11734;51.046;13.778;2022-09-16T00:45:45;1.90;;;1.20;;
23129;SDS011;11734;51.046;13.778;2022-09-16T00:48:23;1.57;;;1.33;;
23129;SDS011;11734;51.046;13.778;2022-09-16T00:50:56;1.53;;;1.43;;
23129;SDS011;11734;51.046;13.778;2022-09-16T00:53:31;1.30;;;1.20;;
23129;SDS011;11734;51.046;13.778;2022-09-16T00:56:08;1.63;;;1.40;;
23129;SDS011;11734;51.046;13.778;2022-09-16T01:01:36;2.80;;;1.63;;
23129;SDS011;11734;51.046;13.778;2022-09-16T01:04:06;1.60;;;1.50;;
23129;SDS011;11734;51.046;13.778;2022-09-16T01:06:57;2.73;;;1.50;;
23129;SDS011;11734;51.046;13.778;2022-09-16T01:09:26;2.53;;;1.60;;
23129;SDS011;11734;51.046;13.778;2022-09-16T01:11:55;3.07;;;1.43;;
23129;SDS011;11734;51.046;13.778;2022-09-16T01:14:22;2.17;;;1.63;;
23129;SDS011;11734;51.046;13.778;2022-09-16T01:32:28;1.73;;;1.63;;
23129;SDS011;11734;51.046;13.778;2022-09-16T01:43:49;2.53;;;1.43;;
23129;SDS011;11734;51.046;13.778;2022-09-16T01:46:29;1.33;;;1.13;;
23129;SDS011;11734;51.046;13.778;2022-09-16T01:49:41;1.40;;;1.20;;
23129;SDS011;11734;51.046;13.778;2022-09-16T01:52:29;1.57;;;1.10;;
23129;SDS011;11734;51.046;13.778;2022-09-16T01:58:33;1.27;;;1.17;;
23129;SDS011;11734;51.046;13.778;2022-09-16T02:01:24;1.47;;;1.30;;
23129;SDS011;11734;51.046;13.778;2022-09-16T02:04:05;1.30;;;1.20;;
23129;SDS011;11734;51.046;13.778;2022-09-16T02:06:41;1.93;;;1.37;;
23129;SDS011;11734;51.046;13.778;2022-09-16T02:09:33;1.47;;;1.30;;
23129;SDS011;11734;51.046;13.778;2022-09-16T02:12:08;2.17;;;1.23;;
23129;SDS011;11734;51.046;13.778;2022-09-16T02:14:44;1.60;;;1.30;;
23129;SDS011;11734;51.046;13.778;2022-09-16T02:17:15;2.13;;;1.30;;
23129;SDS011;11734;51.046;13.778;2022-09-16T02:22:33;1.17;;;1.03;;
23129;SDS011;11734;51.046;13.778;2022-09-16T02:25:10;0.93;;;0.90;;
23129;SDS011;11734;51.046;13.778;2022-09-16T02:27:41;1.90;;;1.20;;
23129;SDS011;11734;51.046;13.778;2022-09-16T02:30:16;1.63;;;1.20;;
23129;SDS011;11734;51.046;13.778;2022-09-16T02:32:48;1.80;;;1.23;;
23129;SDS011;11734;51.046;13.778;2022-09-16T02:35:27;2.77;;;1.00;;
23129;SDS011;11734;51.046;13.778;2022-09-16T02:38:00;1.20;;;1.10;;
23129;SDS011;11734;51.046;13.778;2022-09-16T02:40:47;2.10;;;1.20;;
23129;SDS011;11734;51.046;13.778;2022-09-16T02:43:19;1.57;;;1.13;;
23129;SDS011;11734;51.046;13.778;2022-09-16T02:51:45;1.27;;;0.97;;
23129;SDS011;11734;51.046;13.778;2022-09-16T02:55:24;1.47;;;1.37;;
23129;SDS011;11734;51.046;13.778;2022-09-16T02:58:11;0.90;;;0.90;;
23129;SDS011;11734;51.046;13.778;2022-09-16T03:00:39;1.33;;;1.20;;
23129;SDS011;11734;51.046;13.778;2022-09-16T03:03:15;1.17;;;0.97;;
23129;SDS011;11734;51.046;13.778;2022-09-16T03:08:32;1.90;;;1.60;;
23129;SDS011;11734;51.046;13.778;2022-09-16T03:11:03;2.03;;;1.57;;
23129;SDS011;11734;51.046;13.778;2022-09-16T03:16:35;1.77;;;1.30;;
23129;SDS011;11734;51.046;13.778;2022-09-16T03:28:42;2.90;;;1.43;;
23129;SDS011;11734;51.046;13.778;2022-09-16T03:31:17;1.70;;;1.53;;
23129;SDS011;11734;51.046;13.778;2022-09-16T03:34:07;2.93;;;1.73;;
23129;SDS011;11734;51.046;13.778;2022-09-16T03:36:47;2.07;;;1.47;;
23129;SDS011;11734;51.046;13.778;2022-09-16T03:39:25;2.23;;;1.20;;
23129;SDS011;11734;51.046;13.778;2022-09-16T03:41:52;2.33;;;1.30;;
23129;SDS011;11734;51.046;13.778;2022-09-16T03:44:35;2.10;;;1.90;;
23129;SDS011;11734;51.046;13.778;2022-09-16T03:47:05;1.87;;;1.60;;
23129;SDS011;11734;51.046;13.778;2022-09-16T03:49:34;1.27;;;1.20;;
23129;SDS011;11734;51.046;13.778;2022-09-16T03:52:02;2.43;;;1.50;;
23129;SDS011;11734;51.046;13.778;2022-09-16T03:54:34;2.10;;;1.57;;
23129;SDS011;11734;51.046;13.778;2022-09-16T03:57:02;1.50;;;1.40;;
23129;SDS011;11734;51.046;13.778;2022-09-16T03:59:30;1.40;;;1.30;;
23129;SDS011;11734;51.046;13.778;2022-09-16T04:01:58;3.87;;;1.50;;
23129;SDS011;11734;51.046;13.778;2022-09-16T04:04:25;2.33;;;1.50;;
23129;SDS011;11734;51.046;13.778;2022-09-16T04:06:52;1.60;;;1.40;;
23129;SDS011;11734;51.046;13.778;2022-09-16T04:09:19;1.37;;;1.27;;
23129;SDS011;11734;51.046;13.778;2022-09-16T04:11:46;2.43;;;1.40;;
23129;SDS011;11734;51.046;13.778;2022-09-16T04:14:13;1.33;;;1.30;;
23129;SDS011;11734;51.046;13.778;2022-09-16T04:16:41;2.30;;;1.60;;
23129;SDS011;11734;51.046;13.778;2022-09-16T04:19:11;2.60;;;1.30;;
23129;SDS011;11734;51.046;13.778;2022-09-16T04:21:40;1.30;;;1.20;;
23129;SDS011;11734;51.046;13.778;2022-09-16T04:24:08;2.43;;;1.40;;
23129;SDS011;11734;51.046;13.778;2022-09-16T04:26:39;1.40;;;1.30;;
23129;SDS011;11734;51.046;13.778;2022-09-16T04:29:07;2.27;;;1.50;;
23129;SDS011;11734;51.046;13.778;2022-09-16T04:31:34;1.30;;;1.20;;
23129;SDS011;11734;51.046;13.778;2022-09-16T04:34:02;1.30;;;1.20;;
23129;SDS011;11734;51.046;13.778;2022-09-16T04:36:30;1.67;;;1.57;;
23129;SDS011;11734;51.046;13.778;2022-09-16T04:38:57;2.03;;;1.60;;
23129;SDS011;11734;51.046;13.778;2022-09-16T04:41:25;2.77;;;1.33;;
23129;SDS011;11734;51.046;13.778;2022-09-16T04:43:53;2.13;;;1.53;;
23129;SDS011;11734;51.046;13.778;2022-09-16T04:46:24;2.00;;;1.53;;
23129;SDS011;11734;51.046;13.778;2022-09-16T04:48:54;2.27;;;1.47;;
23129;SDS011;11734;51.046;13.778;2022-09-16T04:51:22;3.73;;;1.53;;
23129;SDS011;11734;51.046;13.778;2022-09-16T04:53:53;3.30;;;2.50;;
23129;SDS011;11734;51.046;13.778;2022-09-16T04:56:25;3.23;;;1.93;;
23129;SDS011;11734;51.046;13.778;2022-09-16T04:59:00;2.07;;;1.80;;
23129;SDS011;11734;51.046;13.778;2022-09-16T05:01:31;1.87;;;1.50;;
23129;SDS011;11734;51.046;13.778;2022-09-16T05:04:01;2.10;;;1.57;;
23129;SDS011;11734;51.046;13.778;2022-09-16T05:06:31;1.80;;;1.40;;
23129;SDS011;11734;51.046;13.778;2022-09-16T05:09:02;2.00;;;1.57;;
23129;SDS011;11734;51.046;13.778;2022-09-16T05:11:30;2.70;;;1.60;;
23129;SDS011;11734;51.046;13.778;2022-09-16T05:14:03;2.67;;;1.50;;
23129;SDS011;11734;51.046;13.778;2022-09-16T05:16:33;3.60;;;2.50;;
23129;SDS011;11734;51.046;13.778;2022-09-16T05:19:01;1.93;;;1.53;;
23129;SDS011;11734;51.046;13.778;2022-09-16T05:21:31;2.23;;;1.77;;
23129;SDS011;11734;51.046;13.778;2022-09-16T05:24:02;3.57;;;1.80;;
23129;SDS011;11734;51.046;13.778;2022-09-16T05:26:36;3.00;;;1.80;;
23129;SDS011;11734;51.046;13.778;2022-09-16T05:29:09;1.50;;;1.40;;
23129;SDS011;11734;51.046;13.778;2022-09-16T05:31:41;2.03;;;1.50;;
23129;SDS011;11734;51.046;13.778;2022-09-16T05:34:13;2.77;;;1.50;;
23129;SDS011;11734;51.046;13.778;2022-09-16T05:36:44;1.40;;;1.27;;
23129;SDS011;11734;51.046;13.778;2022-09-16T05:39:13;3.40;;;1.53;;
23129;SDS011;11734;51.046;13.778;2022-09-16T05:41:51;2.27;;;1.30;;
23129;SDS011;11734;51.046;13.778;2022-09-16T05:44:25;2.13;;;1.40;;
23129;SDS011;11734;51.046;13.778;2022-09-16T05:46:54;1.27;;;1.10;;
23129;SDS011;11734;51.046;13.778;2022-09-16T05:49:21;1.90;;;1.40;;
23129;SDS011;11734;51.046;13.778;2022-09-16T05:51:49;3.60;;;1.50;;
23129;SDS011;11734;51.046;13.778;2022-09-16T05:54:17;3.47;;;1.43;;
23129;SDS011;11734;51.046;13.778;2022-09-16T05:56:45;1.57;;;1.47;;
23129;SDS011;11734;51.046;13.778;2022-09-16T05:59:13;1.47;;;1.30;;
23129;SDS011;11734;51.046;13.778;2022-09-16T06:01:42;3.23;;;1.40;;
23129;SDS011;11734;51.046;13.778;2022-09-16T06:04:11;2.17;;;1.57;;
23129;SDS011;11734;51.046;13.778;2022-09-16T06:06:41;2.40;;;1.50;;
23129;SDS011;11734;51.046;13.778;2022-09-16T06:09:14;2.80;;;1.40;;
23129;SDS011;11734;51.046;13.778;2022-09-16T06:11:47;1.53;;;1.20;;
23129;SDS011;11734;51.046;13.778;2022-09-16T06:14:20;1.70;;;1.40;;
23129;SDS011;11734;51.046;13.778;2022-09-16T06:16:48;1.80;;;1.37;;
23129;SDS011;11734;51.046;13.778;2022-09-16T06:19:16;1.67;;;1.30;;
23129;SDS011;11734;51.046;13.778;2022-09-16T06:21:45;1.97;;;1.50;;
23129;SDS011;11734;51.046;13.778;2022-09-16T06:24:13;1.70;;;1.60;;
23129;SDS011;11734;51.046;13.778;2022-09-16T06:26:42;1.57;;;1.47;;
23129;SDS011;11734;51.046;13.778;2022-09-16T06:29:11;1.90;;;1.70;;
23129;SDS011;11734;51.046;13.778;2022-09-16T06:31:39;3.07;;;1.43;;
23129;SDS011;11734;51.046;13.778;2022-09-16T06:34:07;2.37;;;2.00;;
23129;SDS011;11734;51.046;13.778;2022-09-16T06:36:44;2.90;;;2.10;;
23129;SDS011;11734;51.046;13.778;2022-09-16T06:39:13;3.23;;;2.03;;
23129;SDS011;11734;51.046;13.778;2022-09-16T06:41:42;2.27;;;2.07;;
23129;SDS011;11734;51.046;13.778;2022-09-16T06:44:09;2.33;;;1.90;;
23129;SDS011;11734;51.046;13.778;2022-09-16T06:46:37;3.67;;;2.00;;
23129;SDS011;11734;51.046;13.778;2022-09-16T06:49:04;2.17;;;1.97;;
23129;SDS011;11734;51.046;13.778;2022-09-16T06:51:32;2.53;;;2.33;;
23129;SDS011;11734;51.046;13.778;2022-09-16T06:54:01;2.80;;;1.83;;
23129;SDS011;11734;51.046;13.778;2022-09-16T06:56:32;2.77;;;1.93;;
23129;SDS011;11734;51.046;13.778;2022-09-16T06:59:02;1.93;;;1.83;;
23129;SDS011;11734;51.046;13.778;2022-09-16T07:01:30;1.70;;;1.60;;
23129;SDS011;11734;51.046;13.778;2022-09-16T07:04:03;1.77;;;1.30;;
23129;SDS011;11734;51.046;13.778;2022-09-16T07:06:35;1.60;;;1.50;;
23129;SDS011;11734;51.046;13.778;2022-09-16T07:09:23;2.90;;;1.87;;
23129;SDS011;11734;51.046;13.778;2022-09-16T07:11:50;2.93;;;1.80;;
23129;SDS011;11734;51.046;13.778;2022-09-16T07:14:17;2.07;;;1.60;;
23129;SDS011;11734;51.046;13.778;2022-09-16T07:16:44;1.87;;;1.40;;
23129;SDS011;11734;51.046;13.778;2022-09-16T07:19:11;4.90;;;2.10;;
23129;SDS011;11734;51.046;13.778;2022-09-16T07:21:38;2.77;;;1.60;;
23129;SDS011;11734;51.046;13.778;2022-09-16T07:24:08;3.07;;;1.70;;
23129;SDS011;11734;51.046;13.778;2022-09-16T07:26:38;1.50;;;1.33;;
23129;SDS011;11734;51.046;13.778;2022-09-16T07:29:08;1.93;;;1.50;;
23129;SDS011;11734;51.046;13.778;2022-09-16T07:31:40;1.53;;;1.43;;
23129;SDS011;11734;51.046;13.778;2022-09-16T07:34:08;2.73;;;1.50;;
23129;SDS011;11734;51.046;13.778;2022-09-16T07:36:44;2.83;;;1.50;;
23129;SDS011;11734;51.046;13.778;2022-09-16T07:39:14;2.00;;;1.13;;
23129;SDS011;11734;51.046;13.778;2022-09-16T07:41:44;1.50;;;1.40;;
23129;SDS011;11734;51.046;13.778;2022-09-16T07:44:14;1.93;;;1.20;;
23129;SDS011;11734;51.046;13.778;2022-09-16T07:46:44;1.57;;;1.47;;
23129;SDS011;11734;51.046;13.778;2022-09-16T07:49:12;5.50;;;1.97;;
23129;SDS011;11734;51.046;13.778;2022-09-16T07:51:40;3.20;;;1.73;;
23129;SDS011;11734;51.046;13.778;2022-09-16T07:54:10;2.70;;;1.80;;
23129;SDS011;11734;51.046;13.778;2022-09-16T07:56:41;1.47;;;1.37;;
23129;SDS011;11734;51.046;13.778;2022-09-16T07:59:14;1.73;;;1.40;;
23129;SDS011;11734;51.046;13.778;2022-09-16T08:01:45;1.43;;;1.20;;
23129;SDS011;11734;51.046;13.778;2022-09-16T08:04:17;2.37;;;1.20;;
23129;SDS011;11734;51.046;13.778;2022-09-16T08:06:45;1.67;;;1.10;;
23129;SDS011;11734;51.046;13.778;2022-09-16T08:09:13;2.07;;;1.43;;
23129;SDS011;11734;51.046;13.778;2022-09-16T08:12:01;2.30;;;1.80;;
23129;SDS011;11734;51.046;13.778;2022-09-16T08:14:30;2.00;;;1.57;;
23129;SDS011;11734;51.046;13.778;2022-09-16T08:16:58;1.47;;;1.37;;
23129;SDS011;11734;51.046;13.778;2022-09-16T08:19:26;2.10;;;1.57;;
23129;SDS011;11734;51.046;13.778;2022-09-16T08:21:53;2.47;;;1.40;;
23129;SDS011;11734;51.046;13.778;2022-09-16T08:24:20;1.67;;;1.23;;
23129;SDS011;11734;51.046;13.778;2022-09-16T08:26:47;1.80;;;1.30;;
23129;SDS011;11734;51.046;13.778;2022-09-16T08:29:14;2.50;;;1.43;;
23129;SDS011;11734;51.046;13.778;2022-09-16T08:31:42;1.33;;;1.20;;
23129;SDS011;11734;51.046;13.778;2022-09-16T08:34:09;1.73;;;1.40;;
23129;SDS011;11734;51.046;13.778;2022-09-16T08:36:36;1.20;;;1.10;;
23129;SDS011;11734;51.046;13.778;2022-09-16T08:39:03;2.33;;;1.50;;
23129;SDS011;11734;51.046;13.778;2022-09-16T08:50:15;1.37;;;1.00;;
23129;SDS011;11734;51.046;13.778;2022-09-16T08:52:51;1.87;;;1.17;;
23129;SDS011;11734;51.046;13.778;2022-09-16T08:55:24;0.90;;;0.90;;
23129;SDS011;11734;51.046;13.778;2022-09-16T08:58:09;1.80;;;1.50;;
23129;SDS011;11734;51.046;13.778;2022-09-16T09:00:57;1.67;;;1.00;;
23129;SDS011;11734;51.046;13.778;2022-09-16T09:03:40;1.00;;;0.90;;
23129;SDS011;11734;51.046;13.778;2022-09-16T09:12:26;1.37;;;1.20;;
23129;SDS011;11734;51.046;13.778;2022-09-16T09:15:33;1.67;;;1.13;;
23129;SDS011;11734;51.046;13.778;2022-09-16T09:18:24;1.40;;;1.10;;
23129;SDS011;11734;51.046;13.778;2022-09-16T09:26:56;2.13;;;1.20;;
23129;SDS011;11734;51.046;13.778;2022-09-16T09:29:49;1.00;;;1.00;;
23129;SDS011;11734;51.046;13.778;2022-09-16T09:41:26;1.50;;;1.40;;
23129;SDS011;11734;51.046;13.778;2022-09-16T09:47:03;1.80;;;0.93;;
23129;SDS011;11734;51.046;13.778;2022-09-16T09:49:40;1.13;;;1.03;;
23129;SDS011;11734;51.046;13.778;2022-09-16T09:54:53;1.30;;;1.10;;
23129;SDS011;11734;51.046;13.778;2022-09-16T10:00:04;1.33;;;1.00;;
23129;SDS011;11734;51.046;13.778;2022-09-16T10:02:47;1.17;;;1.07;;
23129;SDS011;11734;51.046;13.778;2022-09-16T10:07:54;1.30;;;1.20;;
23129;SDS011;11734;51.046;13.778;2022-09-16T10:10:28;2.80;;;1.50;;
23129;SDS011;11734;51.046;13.778;2022-09-16T10:13:10;1.53;;;1.00;;
23129;SDS011;11734;51.046;13.778;2022-09-16T10:15:38;0.90;;;0.90;;
23129;SDS011;11734;51.046;13.778;2022-09-16T10:18:18;1.53;;;0.90;;
23129;SDS011;11734;51.046;13.778;2022-09-16T10:23:38;1.20;;;1.10;;
23129;SDS011;11734;51.046;13.778;2022-09-16T10:28:52;1.67;;;1.20;;
23129;SDS011;11734;51.046;13.778;2022-09-16T10:31:24;1.50;;;1.30;;
23129;SDS011;11734;51.046;13.778;2022-09-16T10:34:03;1.17;;;1.07;;
23129;SDS011;11734;51.046;13.778;2022-09-16T10:36:48;1.00;;;0.90;;
23129;SDS011;11734;51.046;13.778;2022-09-16T10:39:31;1.27;;;0.97;;
23129;SDS011;11734;51.046;13.778;2022-09-16T10:41:59;1.10;;;1.00;;
23129;SDS011;11734;51.046;13.778;2022-09-16T10:44:30;1.60;;;1.30;;
23129;SDS011;11734;51.046;13.778;2022-09-16T10:47:05;1.40;;;1.30;;
23129;SDS011;11734;51.046;13.778;2022-09-16T10:49:53;1.40;;;1.30;;
23129;SDS011;11734;51.046;13.778;2022-09-16T10:52:28;1.60;;;1.50;;
23129;SDS011;11734;51.046;13.778;2022-09-16T10:55:08;1.90;;;1.60;;
23129;SDS011;11734;51.046;13.778;2022-09-16T10:57:45;1.90;;;1.40;;
23129;SDS011;11734;51.046;13.778;2022-09-16T11:09:13;3.10;;;1.70;;
23129;SDS011;11734;51.046;13.778;2022-09-16T11:18:09;1.30;;;1.20;;
23129;SDS011;11734;51.046;13.778;2022-09-16T11:37:51;1.57;;;1.00;;
23129;SDS011;11734;51.046;13.778;2022-09-16T11:45:56;2.70;;;1.33;;
23129;SDS011;11734;51.046;13.778;2022-09-16T11:57:28;0.93;;;0.93;;
23129;SDS011;11734;51.046;13.778;2022-09-16T12:02:39;1.03;;;1.00;;
23129;SDS011;11734;51.046;13.778;2022-09-16T12:07:44;2.47;;;1.23;;
23129;SDS011;11734;51.046;13.778;2022-09-16T12:10:36;2.20;;;1.43;;
23129;SDS011;11734;51.046;13.778;2022-09-16T12:13:16;1.23;;;1.13;;
23129;SDS011;11734;51.046;13.778;2022-09-16T12:16:10;1.30;;;1.10;;
23129;SDS011;11734;51.046;13.778;2022-09-16T12:18:51;0.70;;;0.70;;
23129;SDS011;11734;51.046;13.778;2022-09-16T12:24:05;0.90;;;0.90;;
23129;SDS011;11734;51.046;13.778;2022-09-16T12:26:53;0.83;;;0.63;;
23129;SDS011;11734;51.046;13.778;2022-09-16T12:29:32;1.03;;;0.60;;
23129;SDS011;11734;51.046;13.778;2022-09-16T12:32:38;0.77;;;0.77;;
23129;SDS011;11734;51.046;13.778;2022-09-16T12:35:35;0.80;;;0.80;;
23129;SDS011;11734;51.046;13.778;2022-09-16T12:38:14;1.30;;;1.07;;
23129;SDS011;11734;51.046;13.778;2022-09-16T12:40:58;1.53;;;0.90;;
23129;SDS011;11734;51.046;13.778;2022-09-16T13:01:25;0.97;;;0.97;;
23129;SDS011;11734;51.046;13.778;2022-09-16T13:03:58;1.03;;;1.03;;
23129;SDS011;11734;51.046;13.778;2022-09-16T13:06:35;1.43;;;1.17;;
23129;SDS011;11734;51.046;13.778;2022-09-16T13:11:55;1.10;;;1.10;;
23129;SDS011;11734;51.046;13.778;2022-09-16T13:14:49;1.70;;;1.10;;
23129;SDS011;11734;51.046;13.778;2022-09-16T13:17:34;0.80;;;0.80;;
23129;SDS011;11734;51.046;13.778;2022-09-16T13:25:50;1.30;;;0.93;;
23129;SDS011;11734;51.046;13.778;2022-09-16T13:31:19;1.30;;;1.20;;
23129;SDS011;11734;51.046;13.778;2022-09-16T13:38:53;1.20;;;1.10;;
23129;SDS011;11734;51.046;13.778;2022-09-16T13:47:30;1.23;;;0.90;;
23129;SDS011;11734;51.046;13.778;2022-09-16T13:50:20;0.80;;;0.80;;
23129;SDS011;11734;51.046;13.778;2022-09-16T13:52:49;0.90;;;0.90;;
23129;SDS011;11734;51.046;13.778;2022-09-16T13:55:19;2.00;;;0.90;;
23129;SDS011;11734;51.046;13.778;2022-09-16T14:00:26;1.20;;;1.00;;
23129;SDS011;11734;51.046;13.778;2022-09-16T14:11:29;0.90;;;0.90;;
23129;SDS011;11734;51.046;13.778;2022-09-16T14:14:10;0.80;;;0.80;;
23129;SDS011;11734;51.046;13.778;2022-09-16T14:17:01;1.40;;;0.70;;
23129;SDS011;11734;51.046;13.778;2022-09-16T14:19:38;2.17;;;1.20;;
23129;SDS011;11734;51.046;13.778;2022-09-16T14:22:18;0.80;;;0.80;;
23129;SDS011;11734;51.046;13.778;2022-09-16T14:24:48;1.10;;;0.73;;
23129;SDS011;11734;51.046;13.778;2022-09-16T14:27:34;1.13;;;0.90;;
23129;SDS011;11734;51.046;13.778;2022-09-16T14:30:04;2.33;;;0.83;;
23129;SDS011;11734;51.046;13.778;2022-09-16T14:32:43;2.30;;;1.00;;
23129;SDS011;11734;51.046;13.778;2022-09-16T14:35:19;0.70;;;0.70;;
23129;SDS011;11734;51.046;13.778;2022-09-16T14:37:50;0.63;;;0.63;;
23129;SDS011;11734;51.046;13.778;2022-09-16T14:40:22;1.00;;;0.80;;
23129;SDS011;11734;51.046;13.778;2022-09-16T14:43:00;1.40;;;0.67;;
23129;SDS011;11734;51.046;13.778;2022-09-16T14:45:33;0.70;;;0.70;;
23129;SDS011;11734;51.046;13.778;2022-09-16T14:48:04;1.47;;;0.57;;
23129;SDS011;11734;51.046;13.778;2022-09-16T14:50:35;1.00;;;0.73;;
23129;SDS011;11734;51.046;13.778;2022-09-16T14:53:06;0.63;;;0.63;;
23129;SDS011;11734;51.046;13.778;2022-09-16T14:56:01;0.70;;;0.70;;
23129;SDS011;11734;51.046;13.778;2022-09-16T14:58:30;0.77;;;0.77;;
23129;SDS011;11734;51.046;13.778;2022-09-16T15:01:01;1.17;;;0.60;;
23129;SDS011;11734;51.046;13.778;2022-09-16T15:06:09;0.73;;;0.73;;
23129;SDS011;11734;51.046;13.778;2022-09-16T15:08:51;0.80;;;0.80;;
23129;SDS011;11734;51.046;13.778;2022-09-16T15:11:28;0.80;;;0.80;;
23129;SDS011;11734;51.046;13.778;2022-09-16T15:14:13;1.07;;;0.70;;
23129;SDS011;11734;51.046;13.778;2022-09-16T15:16:43;0.77;;;0.70;;
23129;SDS011;11734;51.046;13.778;2022-09-16T15:19:18;1.23;;;0.70;;
23129;SDS011;11734;51.046;13.778;2022-09-16T15:21:56;0.90;;;0.90;;
23129;SDS011;11734;51.046;13.778;2022-09-16T15:24:26;0.90;;;0.90;;
23129;SDS011;11734;51.046;13.778;2022-09-16T15:26:57;0.70;;;0.70;;
23129;SDS011;11734;51.046;13.778;2022-09-16T15:29:31;0.70;;;0.70;;
23129;SDS011;11734;51.046;13.778;2022-09-16T15:34:45;0.97;;;0.87;;
23129;SDS011;11734;51.046;13.778;2022-09-16T15:37:26;0.80;;;0.80;;
23129;SDS011;11734;51.046;13.778;2022-09-16T15:40:06;1.63;;;0.70;;
23129;SDS011;11734;51.046;13.778;2022-09-16T15:42:46;1.13;;;0.97;;
23129;SDS011;11734;51.046;13.778;2022-09-16T15:45:25;1.37;;;1.00;;
23129;SDS011;11734;51.046;13.778;2022-09-16T15:47:58;0.83;;;0.83;;
23129;SDS011;11734;51.046;13.778;2022-09-16T15:50:28;0.90;;;0.90;;
23129;SDS011;11734;51.046;13.778;2022-09-16T15:55:41;2.20;;;1.30;;
23129;SDS011;11734;51.046;13.778;2022-09-16T15:58:16;1.70;;;1.30;;
23129;SDS011;11734;51.046;13.778;2022-09-16T16:03:26;1.00;;;0.90;;
23129;SDS011;11734;51.046;13.778;2022-09-16T16:05:57;0.97;;;0.90;;
23129;SDS011;11734;51.046;13.778;2022-09-16T16:08:45;1.20;;;1.10;;
23129;SDS011;11734;51.046;13.778;2022-09-16T16:11:18;1.00;;;1.00;;
23129;SDS011;11734;51.046;13.778;2022-09-16T16:13:47;1.37;;;1.23;;
23129;SDS011;11734;51.046;13.778;2022-09-16T16:16:18;1.37;;;1.27;;
23129;SDS011;11734;51.046;13.778;2022-09-16T16:18:46;1.10;;;1.00;;
23129;SDS011;11734;51.046;13.778;2022-09-16T16:21:14;2.33;;;1.13;;
23129;SDS011;11734;51.046;13.778;2022-09-16T16:23:42;1.57;;;1.00;;
23129;SDS011;11734;51.046;13.778;2022-09-16T16:26:10;0.90;;;0.90;;
23129;SDS011;11734;51.046;13.778;2022-09-16T16:28:37;0.90;;;0.90;;
23129;SDS011;11734;51.046;13.778;2022-09-16T16:31:08;0.80;;;0.80;;
23129;SDS011;11734;51.046;13.778;2022-09-16T16:33:44;1.13;;;1.03;;
23129;SDS011;11734;51.046;13.778;2022-09-16T16:36:13;1.70;;;1.23;;
23129;SDS011;11734;51.046;13.778;2022-09-16T16:38:42;1.07;;;0.97;;
23129;SDS011;11734;51.046;13.778;2022-09-16T16:41:11;1.37;;;1.30;;
23129;SDS011;11734;51.046;13.778;2022-09-16T16:43:44;1.50;;;1.40;;
23129;SDS011;11734;51.046;13.778;2022-09-16T16:46:11;1.33;;;1.20;;
23129;SDS011;11734;51.046;13.778;2022-09-16T16:48:39;1.63;;;1.40;;
23129;SDS011;11734;51.046;13.778;2022-09-16T16:51:07;1.77;;;1.30;;
23129;SDS011;11734;51.046;13.778;2022-09-16T16:53:38;1.33;;;1.23;;
23129;SDS011;11734;51.046;13.778;2022-09-16T16:56:07;1.30;;;1.20;;
23129;SDS011;11734;51.046;13.778;2022-09-16T16:58:41;1.10;;;1.10;;
23129;SDS011;11734;51.046;13.778;2022-09-16T17:01:09;2.03;;;1.50;;
23129;SDS011;11734;51.046;13.778;2022-09-16T17:03:39;1.60;;;1.50;;
23129;SDS011;11734;51.046;13.778;2022-09-16T17:06:08;1.67;;;1.30;;
23129;SDS011;11734;51.046;13.778;2022-09-16T17:08:36;2.40;;;1.33;;
23129;SDS011;11734;51.046;13.778;2022-09-16T17:11:05;1.73;;;1.63;;
23129;SDS011;11734;51.046;13.778;2022-09-16T17:13:44;1.93;;;1.67;;
23129;SDS011;11734;51.046;13.778;2022-09-16T17:16:15;1.40;;;1.30;;
23129;SDS011;11734;51.046;13.778;2022-09-16T17:18:46;1.73;;;1.63;;
23129;SDS011;11734;51.046;13.778;2022-09-16T17:21:20;2.70;;;1.30;;
23129;SDS011;11734;51.046;13.778;2022-09-16T17:23:58;2.87;;;1.60;;
23129;SDS011;11734;51.046;13.778;2022-09-16T17:26:26;1.77;;;1.33;;
23129;SDS011;11734;51.046;13.778;2022-09-16T17:28:54;2.23;;;1.77;;
23129;SDS011;11734;51.046;13.778;2022-09-16T17:31:31;3.10;;;1.50;;
23129;SDS011;11734;51.046;13.778;2022-09-16T17:34:00;2.07;;;1.87;;
23129;SDS011;11734;51.046;13.778;2022-09-16T17:36:31;1.97;;;1.80;;
23129;SDS011;11734;51.046;13.778;2022-09-16T17:39:01;1.70;;;1.60;;
23129;SDS011;11734;51.046;13.778;2022-09-16T17:41:33;2.60;;;1.90;;
23129;SDS011;11734;51.046;13.778;2022-09-16T17:44:05;2.27;;;1.80;;
23129;SDS011;11734;51.046;13.778;2022-09-16T17:46:33;2.20;;;1.97;;
23129;SDS011;11734;51.046;13.778;2022-09-16T17:49:02;2.30;;;1.43;;
23129;SDS011;11734;51.046;13.778;2022-09-16T17:51:34;1.83;;;1.70;;
23129;SDS011;11734;51.046;13.778;2022-09-16T17:54:02;1.73;;;1.63;;
23129;SDS011;11734;51.046;13.778;2022-09-16T17:56:30;1.80;;;1.70;;
23129;SDS011;11734;51.046;13.778;2022-09-16T17:58:57;2.57;;;2.10;;
23129;SDS011;11734;51.046;13.778;2022-09-16T18:01:25;2.13;;;1.83;;
23129;SDS011;11734;51.046;13.778;2022-09-16T18:03:53;1.77;;;1.60;;
23129;SDS011;11734;51.046;13.778;2022-09-16T18:06:27;1.97;;;1.67;;
23129;SDS011;11734;51.046;13.778;2022-09-16T18:09:02;2.40;;;2.20;;
23129;SDS011;11734;51.046;13.778;2022-09-16T18:11:30;2.93;;;1.60;;
23129;SDS011;11734;51.046;13.778;2022-09-16T18:13:59;2.00;;;1.83;;
23129;SDS011;11734;51.046;13.778;2022-09-16T18:16:28;3.30;;;3.00;;
23129;SDS011;11734;51.046;13.778;2022-09-16T18:18:57;2.43;;;2.20;;
23129;SDS011;11734;51.046;13.778;2022-09-16T18:21:26;2.50;;;2.30;;
23129;SDS011;11734;51.046;13.778;2022-09-16T18:23:55;2.13;;;1.90;;
23129;SDS011;11734;51.046;13.778;2022-09-16T18:26:24;2.30;;;2.00;;
23129;SDS011;11734;51.046;13.778;2022-09-16T18:28:53;2.00;;;1.80;;
23129;SDS011;11734;51.046;13.778;2022-09-16T18:31:43;2.43;;;2.00;;
23129;SDS011;11734;51.046;13.778;2022-09-16T18:34:12;3.57;;;1.90;;
23129;SDS011;11734;51.046;13.778;2022-09-16T18:36:41;2.73;;;2.10;;
23129;SDS011;11734;51.046;13.778;2022-09-16T18:39:10;2.03;;;1.83;;
23129;SDS011;11734;51.046;13.778;2022-09-16T18:41:40;2.80;;;2.10;;
23129;SDS011;11734;51.046;13.778;2022-09-16T18:44:13;3.50;;;2.20;;
23129;SDS011;11734;51.046;13.778;2022-09-16T18:46:42;2.20;;;2.00;;